createdAt,value
2019-05-23T00:02:30.462Z,95.20
2019-05-23T00:07:36.754Z,94.90
2019-05-23T00:12:44.883Z,95.30
2019-05-23T00:17:49.242Z,95.40
2019-05-23T00:22:53.937Z,95.40
2019-05-23T00:27:58.729Z,95.60
2019-05-23T00:33:04.031Z,95.20
2019-05-23T00:38:09.535Z,94.90
2019-05-23T00:43:13.196Z,94.50
2019-05-23T00:48:18.529Z,95.30
2019-05-23T00:53:23.510Z,94.80
2019-05-23T00:58:27.346Z,94.80
2019-05-23T01:03:32.376Z,95.30
2019-05-23T01:08:37.070Z,94.80
2019-05-23T01:13:41.770Z,94.90
2019-05-23T01:18:46.271Z,95.10
2019-05-23T01:23:58.201Z,95.70
2019-05-23T01:29:03.301Z,95.80
2019-05-23T01:34:08.869Z,96.10
2019-05-23T01:39:12.701Z,96.30
2019-05-23T01:44:17.503Z,96.10
2019-05-23T01:49:22.191Z,95.80
2019-05-23T01:54:26.029Z,96.00
2019-05-23T01:59:30.057Z,95.90
2019-05-23T02:04:34.382Z,96.10
2019-05-23T02:09:38.889Z,96.50
2019-05-23T02:14:44.320Z,96.60
2019-05-23T02:19:48.113Z,96.60
2019-05-23T02:24:53.817Z,96.60
2019-05-23T02:29:58.038Z,96.70
2019-05-23T02:35:02.656Z,96.70
2019-05-23T02:40:18.938Z,97.10
2019-05-23T02:45:41.303Z,97.00
2019-05-23T02:50:49.596Z,96.80
2019-05-23T02:55:57.709Z,97.20
2019-05-23T03:01:51.891Z,97.30
2019-05-23T03:06:57.183Z,96.70
2019-05-23T03:12:01.973Z,97.00
2019-05-23T03:17:10.278Z,97.10
2019-05-23T03:22:33.253Z,97.60
2019-05-23T03:27:45.206Z,98.00
2019-05-23T03:32:51.190Z,97.50
2019-05-23T03:37:55.570Z,97.30
2019-05-23T03:42:59.925Z,97.20
2019-05-23T03:48:06.382Z,97.40
2019-05-23T03:53:11.218Z,97.80
2019-05-23T03:58:16.709Z,97.10
2019-05-23T04:03:20.710Z,97.80
2019-05-23T04:08:24.784Z,97.80
2019-05-23T04:13:28.630Z,97.70
2019-05-23T04:18:32.477Z,97.60
2019-05-23T04:23:36.131Z,98.30
2019-05-23T04:28:41.106Z,98.20
2019-05-23T04:33:45.214Z,97.90
2019-05-23T04:38:49.134Z,97.70
2019-05-23T04:43:52.719Z,97.90
2019-05-23T04:48:56.364Z,97.70
2019-05-23T04:54:01.860Z,97.60
2019-05-23T04:59:06.478Z,97.50
2019-05-23T05:04:10.779Z,97.00
2019-05-23T05:09:16.049Z,96.90
2019-05-23T05:14:19.870Z,96.70
2019-05-23T05:19:24.022Z,96.70
2019-05-23T05:24:28.166Z,96.70
2019-05-23T05:29:31.900Z,96.20
2019-05-23T05:34:35.954Z,95.60
2019-05-23T05:39:39.634Z,95.00
2019-05-23T05:44:45.327Z,94.00
2019-05-23T05:49:49.022Z,93.70
2019-05-23T05:54:52.706Z,93.50
2019-05-23T05:59:56.347Z,93.90
2019-05-23T06:05:00.077Z,93.10
2019-05-23T06:10:05.656Z,91.90
2019-05-23T06:15:09.885Z,91.90
2019-05-23T06:20:14.414Z,92.30
2019-05-23T06:25:18.636Z,92.30
2019-05-23T06:30:22.870Z,92.50
2019-05-23T06:35:27.498Z,91.10
2019-05-23T06:40:32.787Z,90.00
2019-05-23T06:45:38.368Z,89.80
2019-05-23T06:50:42.107Z,88.40
2019-05-23T06:55:45.753Z,90.40
2019-05-23T07:00:49.685Z,89.30
2019-05-23T07:05:53.878Z,88.90
2019-05-23T07:10:57.601Z,88.80
2019-05-23T07:16:01.442Z,87.30
2019-05-23T07:21:05.755Z,86.10
2019-05-23T07:26:09.501Z,85.30
2019-05-23T07:31:13.171Z,86.60
2019-05-23T07:36:17.202Z,84.10
2019-05-23T07:41:21.038Z,83.70
2019-05-23T07:46:24.870Z,83.90
2019-05-23T07:51:29.874Z,82.60
2019-05-23T07:56:35.327Z,80.10
2019-05-23T08:01:44.711Z,82.90
2019-05-23T08:07:09.344Z,79.20
2019-05-23T08:12:13.745Z,78.30
2019-05-23T08:17:17.857Z,79.80
2019-05-23T08:22:21.573Z,78.60
2019-05-23T08:27:25.530Z,78.70
2019-05-23T08:32:29.589Z,78.50
2019-05-23T08:37:34.185Z,75.30
2019-05-23T08:42:38.678Z,76.20
2019-05-23T08:47:42.328Z,75.40
2019-05-23T08:52:46.181Z,75.30
2019-05-23T08:57:50.783Z,71.50
2019-05-23T09:02:58.481Z,70.70
2019-05-23T09:08:00.269Z,65.30
2019-05-23T09:13:04.290Z,65.00
2019-05-23T09:18:08.342Z,70.10
2019-05-23T09:23:12.488Z,65.90
2019-05-23T09:28:17.500Z,65.30
2019-05-23T09:33:21.158Z,59.90
2019-05-23T09:38:24.995Z,64.80
2019-05-23T09:43:28.641Z,62.80
2019-05-23T09:48:32.471Z,59.40
2019-05-23T09:53:36.670Z,59.00
2019-05-23T09:58:40.252Z,56.60
2019-05-23T10:03:43.982Z,55.80
2019-05-23T10:08:47.911Z,55.40
2019-05-23T10:13:51.576Z,57.80
2019-05-23T10:18:55.150Z,55.50
2019-05-23T10:23:59.286Z,56.30
2019-05-23T10:29:03.016Z,54.70
2019-05-23T10:34:07.377Z,55.50
2019-05-23T10:39:13.287Z,55.30
2019-05-23T10:44:17.815Z,55.80
2019-05-23T10:49:21.430Z,53.10
2019-05-23T10:54:25.527Z,53.70
2019-05-23T10:59:29.146Z,52.40
2019-05-23T11:04:32.973Z,51.00
2019-05-23T11:09:38.509Z,51.60
2019-05-23T11:14:41.980Z,52.60
2019-05-23T11:19:45.816Z,50.40
2019-05-23T11:24:49.805Z,52.00
2019-05-23T11:29:53.477Z,54.00
2019-05-23T11:34:57.194Z,52.30
2019-05-23T11:40:00.965Z,50.30
2019-05-23T11:45:07.413Z,50.40
2019-05-23T11:50:11.752Z,51.80
2019-05-23T11:55:16.692Z,49.10
2019-05-23T12:00:23.978Z,48.90
2019-05-23T12:05:29.871Z,51.40
2019-05-23T12:10:33.638Z,49.60
2019-05-23T12:15:38.860Z,47.00
2019-05-23T12:20:42.579Z,46.90
2019-05-23T12:25:46.805Z,49.50
2019-05-23T12:30:50.467Z,48.80
2019-05-23T12:35:54.452Z,45.20
2019-05-23T12:40:58.378Z,46.20
2019-05-23T12:46:02.177Z,45.70
2019-05-23T12:51:07.921Z,45.10
2019-05-23T12:56:11.797Z,45.50
2019-05-23T13:01:16.618Z,47.30
2019-05-23T13:06:22.152Z,43.80
2019-05-23T13:11:26.275Z,44.20
2019-05-23T13:16:30.266Z,47.40
2019-05-23T13:21:33.896Z,46.70
2019-05-23T13:26:37.717Z,46.40
2019-05-23T13:31:41.545Z,45.20
2019-05-23T13:36:45.488Z,44.70
2019-05-23T13:41:49.074Z,45.70
2019-05-23T13:46:53.654Z,47.60
2019-05-23T13:51:57.377Z,44.60
2019-05-23T13:57:01.718Z,45.70
2019-05-23T14:02:07.314Z,45.90
2019-05-23T14:07:12.539Z,45.10
2019-05-23T14:12:21.450Z,45.80
2019-05-23T14:17:33.449Z,47.60
2019-05-23T14:22:38.903Z,46.00
2019-05-23T14:27:53.392Z,46.00
2019-05-23T14:32:59.077Z,47.10
2019-05-23T14:38:05.756Z,46.60
2019-05-23T14:43:17.230Z,46.70
2019-05-23T14:48:25.844Z,46.80
2019-05-23T14:53:37.372Z,47.80
2019-05-23T14:58:41.393Z,48.50
2019-05-23T15:03:46.175Z,46.60
2019-05-23T15:08:51.721Z,48.70
2019-05-23T15:13:56.177Z,48.10
2019-05-23T15:19:00.615Z,46.70
2019-05-23T15:24:04.625Z,49.60
2019-05-23T15:29:08.347Z,49.60
2019-05-23T15:34:12.073Z,49.10
2019-05-23T15:39:16.696Z,49.60
2019-05-23T15:44:26.800Z,48.90
2019-05-23T15:49:26.300Z,51.60
2019-05-23T15:54:31.793Z,50.30
2019-05-23T15:59:37.301Z,51.20
2019-05-23T16:04:41.833Z,50.30
2019-05-23T16:09:45.785Z,50.70
2019-05-23T16:14:49.510Z,52.10
2019-05-23T16:19:53.229Z,52.00
2019-05-23T16:24:57.249Z,50.90
2019-05-23T16:30:00.892Z,51.60
2019-05-23T16:35:05.926Z,51.40
2019-05-23T16:40:09.860Z,50.80
2019-05-23T16:45:13.885Z,50.60
2019-05-23T16:50:17.683Z,50.90
2019-05-23T16:55:35.219Z,51.10
2019-05-23T17:00:55.862Z,52.10
2019-05-23T17:06:01.461Z,51.90
2019-05-23T17:11:12.988Z,52.10
2019-05-23T17:16:27.494Z,52.90
2019-05-23T17:21:39.116Z,52.80
2019-05-23T17:26:50.208Z,52.80
2019-05-23T17:31:55.979Z,53.80
2019-05-23T17:36:59.624Z,54.10
2019-05-23T17:42:03.546Z,55.00
2019-05-23T17:47:07.229Z,55.00
2019-05-23T17:52:11.525Z,55.00
2019-05-23T17:57:15.524Z,55.00
2019-05-23T18:02:20.079Z,56.50
2019-05-23T18:07:24.133Z,56.10
2019-05-23T18:12:27.919Z,56.40
2019-05-23T18:17:32.337Z,56.30
2019-05-23T18:22:37.845Z,55.50
2019-05-23T18:27:42.437Z,56.90
2019-05-23T18:32:47.371Z,57.50
2019-05-23T18:37:51.025Z,57.90
2019-05-23T18:42:54.742Z,58.20
2019-05-23T18:47:59.661Z,58.90
2019-05-23T18:53:04.383Z,60.10
2019-05-23T18:58:09.607Z,60.30
2019-05-23T19:03:13.530Z,61.00
2019-05-23T19:08:17.199Z,66.80
2019-05-23T19:13:21.215Z,72.40
2019-05-23T19:18:25.137Z,75.10
2019-05-23T19:23:29.425Z,76.40
2019-05-23T19:28:34.054Z,79.60
2019-05-23T19:33:38.381Z,80.40
2019-05-23T19:38:42.386Z,82.20
2019-05-23T19:43:48.189Z,84.00
2019-05-23T19:48:52.843Z,84.80
2019-05-23T19:53:57.040Z,86.30
2019-05-23T19:59:00.965Z,87.70
2019-05-23T20:04:06.941Z,88.20
2019-05-23T20:09:12.715Z,89.70
2019-05-23T20:14:16.376Z,89.60
2019-05-23T20:19:19.962Z,90.30
2019-05-23T20:24:23.901Z,90.40
2019-05-23T20:29:28.623Z,90.40
2019-05-23T20:34:32.285Z,90.90
2019-05-23T20:39:35.875Z,90.60
2019-05-23T20:44:39.598Z,90.50
2019-05-23T20:49:43.266Z,90.10
2019-05-23T20:54:47.324Z,90.00
2019-05-23T20:59:51.310Z,90.50
2019-05-23T21:04:55.038Z,91.70
2019-05-23T21:09:58.755Z,92.00
2019-05-23T21:15:02.897Z,91.80
2019-05-23T21:20:07.210Z,92.20
2019-05-23T21:25:11.028Z,91.90
2019-05-23T21:30:14.820Z,91.70
2019-05-23T21:35:19.231Z,92.00
2019-05-23T21:40:38.231Z,92.10
2019-05-23T21:45:42.483Z,92.10
2019-05-23T21:50:46.549Z,92.50
2019-05-23T21:55:50.480Z,92.90
2019-05-23T22:01:08.238Z,93.20
2019-05-23T22:06:14.491Z,93.70
2019-05-23T22:11:18.310Z,93.70
2019-05-23T22:16:22.752Z,93.50
2019-05-23T22:21:26.487Z,93.30
2019-05-23T22:26:30.454Z,93.80
2019-05-23T22:31:34.429Z,94.40
2019-05-23T22:36:38.187Z,94.10
2019-05-23T22:41:42.121Z,94.40
2019-05-23T22:46:45.897Z,95.60
2019-05-23T22:51:49.476Z,96.10
2019-05-23T22:56:53.072Z,95.90
2019-05-23T23:01:56.720Z,95.50
2019-05-23T23:07:00.707Z,95.50
2019-05-23T23:12:04.441Z,95.50
2019-05-23T23:17:08.266Z,95.40
2019-05-23T23:22:13.653Z,95.40
2019-05-23T23:27:17.581Z,95.40
2019-05-23T23:32:21.749Z,95.50
2019-05-23T23:37:25.825Z,95.70
2019-05-23T23:42:29.589Z,95.80
2019-05-23T23:47:51.518Z,95.80
2019-05-23T23:53:12.984Z,96.00
2019-05-23T23:58:15.997Z,96.40
